Maysville, Georgia
Current Conditions -  °F | °C
As of 5:55 PM on Tuesday 27 Jan 2015 (Local Time) from K19A Reporting Station
Clear Clear  
Wind Chill: 35°   Ceiling: Unl
Heat Index: 43°   Visibility: 10mi
Dew Point: 30°   Wind: 15mph
Humidity: 61%   Direction: 320°NW
Pressure: 29.98"   Gusts: NA
Location:  34.25°N, 83.56°W
Report Text: K19A 272255Z AUTO 32013KT 10SM CLR 06/M01 A2998 RMK AO2
Loading
Personal Weather Stations






























Interactive Weather Map New forecast layout! Learn more

10-Day Weather Forecast

Advertisements
Track Severe Weather on mobile